sensor_id;sensor_type;location;lat;lon;timestamp;pressure;altitude;pressure_sealevel;temperature
76901;BMP280;65859;43.020;25.096;2023-02-02T00:00:14;99315.03;;;2.24
76901;BMP280;65859;43.020;25.096;2023-02-02T00:02:41;99311.31;;;2.10
76901;BMP280;65859;43.020;25.096;2023-02-02T00:05:08;99314.47;;;2.12
76901;BMP280;65859;43.020;25.096;2023-02-02T00:07:34;99310.84;;;2.18
76901;BMP280;65859;43.020;25.096;2023-02-02T00:10:01;99315.53;;;2.16
76901;BMP280;65859;43.020;25.096;2023-02-02T00:12:27;99308.91;;;1.93
76901;BMP280;65859;43.020;25.096;2023-02-02T00:14:53;99284.63;;;2.03
76901;BMP280;65859;43.020;25.096;2023-02-02T00:17:20;99299.84;;;2.41
76901;BMP280;65859;43.020;25.096;2023-02-02T00:19:47;99302.50;;;2.87
76901;BMP280;65859;43.020;25.096;2023-02-02T00:22:14;99300.38;;;2.89
76901;BMP280;65859;43.020;25.096;2023-02-02T00:24:41;99302.75;;;2.50
76901;BMP280;65859;43.020;25.096;2023-02-02T00:27:08;99299.88;;;2.26
76901;BMP280;65859;43.020;25.096;2023-02-02T00:29:34;99297.75;;;2.18
76901;BMP280;65859;43.020;25.096;2023-02-02T00:32:01;99291.97;;;2.31
76901;BMP280;65859;43.020;25.096;2023-02-02T00:34:27;99281.78;;;2.50
76901;BMP280;65859;43.020;25.096;2023-02-02T00:36:54;99291.50;;;2.80
76901;BMP280;65859;43.020;25.096;2023-02-02T00:39:22;99288.34;;;2.93
76901;BMP280;65859;43.020;25.096;2023-02-02T00:41:51;99289.38;;;2.92
76901;BMP280;65859;43.020;25.096;2023-02-02T00:44:17;99295.63;;;3.07
76901;BMP280;65859;43.020;25.096;2023-02-02T00:47:02;99291.97;;;3.18
76901;BMP280;65859;43.020;25.096;2023-02-02T00:49:29;99299.53;;;3.19
76901;BMP280;65859;43.020;25.096;2023-02-02T00:51:56;99294.13;;;3.60
76901;BMP280;65859;43.020;25.096;2023-02-02T00:54:24;99287.00;;;3.76
76901;BMP280;65859;43.020;25.096;2023-02-02T00:56:50;99269.59;;;3.95
76901;BMP280;65859;43.020;25.096;2023-02-02T00:59:16;99264.75;;;4.13
76901;BMP280;65859;43.020;25.096;2023-02-02T01:01:43;99272.75;;;3.92
76901;BMP280;65859;43.020;25.096;2023-02-02T01:04:09;99262.13;;;4.08
76901;BMP280;65859;43.020;25.096;2023-02-02T01:06:36;99260.81;;;4.10
76901;BMP280;65859;43.020;25.096;2023-02-02T01:09:02;99267.66;;;4.06
76901;BMP280;65859;43.020;25.096;2023-02-02T01:11:29;99263.31;;;4.26
76901;BMP280;65859;43.020;25.096;2023-02-02T01:13:58;99262.63;;;4.15
76901;BMP280;65859;43.020;25.096;2023-02-02T01:16:24;99262.69;;;4.00
76901;BMP280;65859;43.020;25.096;2023-02-02T01:18:51;99263.19;;;4.07
76901;BMP280;65859;43.020;25.096;2023-02-02T01:21:18;99259.00;;;4.01
76901;BMP280;65859;43.020;25.096;2023-02-02T01:23:46;99265.59;;;3.98
76901;BMP280;65859;43.020;25.096;2023-02-02T01:26:14;99263.31;;;3.91
76901;BMP280;65859;43.020;25.096;2023-02-02T01:28:41;99264.44;;;3.75
76901;BMP280;65859;43.020;25.096;2023-02-02T01:31:10;99266.56;;;3.73
76901;BMP280;65859;43.020;25.096;2023-02-02T01:33:37;99271.69;;;3.93
76901;BMP280;65859;43.020;25.096;2023-02-02T01:36:09;99257.16;;;4.01
76901;BMP280;65859;43.020;25.096;2023-02-02T01:38:37;99262.78;;;3.89
76901;BMP280;65859;43.020;25.096;2023-02-02T01:41:03;99251.00;;;3.87
76901;BMP280;65859;43.020;25.096;2023-02-02T01:43:53;99247.72;;;4.00
76901;BMP280;65859;43.020;25.096;2023-02-02T01:49:05;99243.38;;;3.85
76901;BMP280;65859;43.020;25.096;2023-02-02T01:51:46;99237.34;;;3.85
76901;BMP280;65859;43.020;25.096;2023-02-02T01:54:32;99245.97;;;3.46
76901;BMP280;65859;43.020;25.096;2023-02-02T01:57:11;99243.47;;;3.70
76901;BMP280;65859;43.020;25.096;2023-02-02T01:59:40;99238.78;;;3.72
76901;BMP280;65859;43.020;25.096;2023-02-02T02:02:07;99236.78;;;3.49
76901;BMP280;65859;43.020;25.096;2023-02-02T02:04:33;99227.09;;;3.44
76901;BMP280;65859;43.020;25.096;2023-02-02T02:07:01;99233.59;;;3.52
76901;BMP280;65859;43.020;25.096;2023-02-02T02:09:28;99231.75;;;3.52
76901;BMP280;65859;43.020;25.096;2023-02-02T02:11:54;99233.56;;;3.57
76901;BMP280;65859;43.020;25.096;2023-02-02T02:14:21;99244.88;;;3.52
76901;BMP280;65859;43.020;25.096;2023-02-02T02:34:44;99239.50;;;3.78
76901;BMP280;65859;43.020;25.096;2023-02-02T02:40:16;99236.44;;;3.60
76901;BMP280;65859;43.020;25.096;2023-02-02T02:42:48;99246.69;;;3.57
76901;BMP280;65859;43.020;25.096;2023-02-02T02:45:18;99247.75;;;3.56
76901;BMP280;65859;43.020;25.096;2023-02-02T02:47:45;99246.16;;;3.60
76901;BMP280;65859;43.020;25.096;2023-02-02T02:50:13;99245.66;;;3.53
76901;BMP280;65859;43.020;25.096;2023-02-02T02:52:39;99247.03;;;3.50
76901;BMP280;65859;43.020;25.096;2023-02-02T02:55:07;99254.56;;;3.52
76901;BMP280;65859;43.020;25.096;2023-02-02T02:58:07;99257.69;;;3.59
76901;BMP280;65859;43.020;25.096;2023-02-02T03:00:58;99254.78;;;3.60
76901;BMP280;65859;43.020;25.096;2023-02-02T03:09:14;99259.25;;;3.65
76901;BMP280;65859;43.020;25.096;2023-02-02T03:11:41;99255.09;;;3.54
76901;BMP280;65859;43.020;25.096;2023-02-02T03:14:08;99253.78;;;3.51
76901;BMP280;65859;43.020;25.096;2023-02-02T03:16:36;99253.56;;;3.48
76901;BMP280;65859;43.020;25.096;2023-02-02T03:19:04;99250.38;;;3.56
76901;BMP280;65859;43.020;25.096;2023-02-02T03:21:31;99249.31;;;3.62
76901;BMP280;65859;43.020;25.096;2023-02-02T03:23:58;99244.03;;;3.67
76901;BMP280;65859;43.020;25.096;2023-02-02T03:26:25;99248.75;;;3.60
76901;BMP280;65859;43.020;25.096;2023-02-02T03:28:55;99234.06;;;3.64
76901;BMP280;65859;43.020;25.096;2023-02-02T03:31:23;99234.09;;;3.59
76901;BMP280;65859;43.020;25.096;2023-02-02T03:33:52;99239.31;;;3.69
76901;BMP280;65859;43.020;25.096;2023-02-02T03:36:18;99236.94;;;3.67
76901;BMP280;65859;43.020;25.096;2023-02-02T03:38:45;99236.94;;;3.67
76901;BMP280;65859;43.020;25.096;2023-02-02T03:41:11;99242.66;;;3.75
76901;BMP280;65859;43.020;25.096;2023-02-02T03:43:38;99237.97;;;3.71
76901;BMP280;65859;43.020;25.096;2023-02-02T03:46:05;99233.25;;;3.74
76901;BMP280;65859;43.020;25.096;2023-02-02T03:48:34;99235.78;;;3.79
76901;BMP280;65859;43.020;25.096;2023-02-02T03:51:09;99241.81;;;3.84
76901;BMP280;65859;43.020;25.096;2023-02-02T03:53:37;99232.34;;;3.88
76901;BMP280;65859;43.020;25.096;2023-02-02T03:56:04;99235.34;;;3.71
76901;BMP280;65859;43.020;25.096;2023-02-02T03:58:30;99241.00;;;3.44
76901;BMP280;65859;43.020;25.096;2023-02-02T04:01:07;99247.81;;;3.45
76901;BMP280;65859;43.020;25.096;2023-02-02T04:03:33;99246.78;;;3.36
76901;BMP280;65859;43.020;25.096;2023-02-02T04:06:00;99237.16;;;3.22
76901;BMP280;65859;43.020;25.096;2023-02-02T04:08:26;99238.13;;;3.41
76901;BMP280;65859;43.020;25.096;2023-02-02T04:10:53;99240.75;;;3.46
76901;BMP280;65859;43.020;25.096;2023-02-02T04:13:21;99244.16;;;3.41
76901;BMP280;65859;43.020;25.096;2023-02-02T04:15:47;99245.19;;;3.45
76901;BMP280;65859;43.020;25.096;2023-02-02T04:18:13;99247.56;;;3.37
76901;BMP280;65859;43.020;25.096;2023-02-02T04:20:40;99255.19;;;3.33
76901;BMP280;65859;43.020;25.096;2023-02-02T04:23:06;99258.84;;;3.37
76901;BMP280;65859;43.020;25.096;2023-02-02T04:25:32;99247.81;;;3.40
76901;BMP280;65859;43.020;25.096;2023-02-02T04:27:59;99250.88;;;3.53
76901;BMP280;65859;43.020;25.096;2023-02-02T04:30:25;99247.94;;;3.69
76901;BMP280;65859;43.020;25.096;2023-02-02T04:32:51;99256.06;;;3.73
76901;BMP280;65859;43.020;25.096;2023-02-02T04:35:18;99247.72;;;3.66
76901;BMP280;65859;43.020;25.096;2023-02-02T04:37:44;99257.69;;;3.59
76901;BMP280;65859;43.020;25.096;2023-02-02T04:40:11;99257.16;;;3.57
76901;BMP280;65859;43.020;25.096;2023-02-02T04:42:38;99255.63;;;3.51
76901;BMP280;65859;43.020;25.096;2023-02-02T04:45:06;99254.56;;;3.52
76901;BMP280;65859;43.020;25.096;2023-02-02T04:47:32;99262.16;;;3.53
76901;BMP280;65859;43.020;25.096;2023-02-02T04:49:59;99259.53;;;3.58
76901;BMP280;65859;43.020;25.096;2023-02-02T04:52:25;99258.75;;;3.53
76901;BMP280;65859;43.020;25.096;2023-02-02T04:54:53;99264.78;;;3.53
76901;BMP280;65859;43.020;25.096;2023-02-02T04:57:20;99264.00;;;3.58
76901;BMP280;65859;43.020;25.096;2023-02-02T04:59:46;99266.19;;;3.90
76901;BMP280;65859;43.020;25.096;2023-02-02T05:02:12;99263.09;;;3.78
76901;BMP280;65859;43.020;25.096;2023-02-02T05:04:39;99262.56;;;3.81
76901;BMP280;65859;43.020;25.096;2023-02-02T05:07:05;99268.59;;;3.81
76901;BMP280;65859;43.020;25.096;2023-02-02T05:09:32;99279.34;;;3.85
76901;BMP280;65859;43.020;25.096;2023-02-02T05:11:58;99280.75;;;3.67
76901;BMP280;65859;43.020;25.096;2023-02-02T05:14:24;99276.84;;;3.59
76901;BMP280;65859;43.020;25.096;2023-02-02T05:16:52;99274.97;;;3.70
76901;BMP280;65859;43.020;25.096;2023-02-02T05:19:19;99285.44;;;3.75
76901;BMP280;65859;43.020;25.096;2023-02-02T05:21:45;99279.09;;;3.81
76901;BMP280;65859;43.020;25.096;2023-02-02T05:24:14;99273.00;;;3.96
76901;BMP280;65859;43.020;25.096;2023-02-02T05:26:40;99278.72;;;3.98
76901;BMP280;65859;43.020;25.096;2023-02-02T05:29:07;99286.09;;;3.96
76901;BMP280;65859;43.020;25.096;2023-02-02T05:31:34;99283.69;;;4.00
76901;BMP280;65859;43.020;25.096;2023-02-02T05:34:01;99292.91;;;3.97
76901;BMP280;65859;43.020;25.096;2023-02-02T05:36:27;99297.50;;;3.76
76901;BMP280;65859;43.020;25.096;2023-02-02T05:38:54;99299.91;;;3.62
76901;BMP280;65859;43.020;25.096;2023-02-02T05:41:20;99303.56;;;3.66
76901;BMP280;65859;43.020;25.096;2023-02-02T05:43:47;99293.81;;;3.77
76901;BMP280;65859;43.020;25.096;2023-02-02T05:46:13;99295.28;;;3.93
76901;BMP280;65859;43.020;25.096;2023-02-02T05:48:41;99290.66;;;3.80
76901;BMP280;65859;43.020;25.096;2023-02-02T05:51:14;99299.28;;;3.86
76901;BMP280;65859;43.020;25.096;2023-02-02T05:53:42;99299.31;;;3.81
76901;BMP280;65859;43.020;25.096;2023-02-02T05:56:10;99300.44;;;3.59
76901;BMP280;65859;43.020;25.096;2023-02-02T05:58:37;99310.72;;;3.51
76901;BMP280;65859;43.020;25.096;2023-02-02T06:01:03;99312.28;;;3.52
76901;BMP280;65859;43.020;25.096;2023-02-02T06:03:30;99309.63;;;3.57
76901;BMP280;65859;43.020;25.096;2023-02-02T06:05:56;99310.03;;;3.84
76901;BMP280;65859;43.020;25.096;2023-02-02T06:08:23;99315.00;;;3.86
76901;BMP280;65859;43.020;25.096;2023-02-02T06:10:49;99307.19;;;3.81
76901;BMP280;65859;43.020;25.096;2023-02-02T06:13:16;99303.63;;;4.01
76901;BMP280;65859;43.020;25.096;2023-02-02T06:15:42;99314.41;;;3.99
76901;BMP280;65859;43.020;25.096;2023-02-02T06:18:09;99323.31;;;4.03
76901;BMP280;65859;43.020;25.096;2023-02-02T06:20:36;99324.59;;;4.11
76901;BMP280;65859;43.020;25.096;2023-02-02T06:23:04;99326.16;;;4.12
76901;BMP280;65859;43.020;25.096;2023-02-02T06:25:30;99323.81;;;4.44
76901;BMP280;65859;43.020;25.096;2023-02-02T06:27:58;99323.94;;;4.34
76901;BMP280;65859;43.020;25.096;2023-02-02T06:30:25;99327.66;;;4.23
76901;BMP280;65859;43.020;25.096;2023-02-02T06:32:52;99320.25;;;4.30
76901;BMP280;65859;43.020;25.096;2023-02-02T06:35:19;99319.72;;;4.38
76901;BMP280;65859;43.020;25.096;2023-02-02T06:37:45;99326.63;;;4.58
76901;BMP280;65859;43.020;25.096;2023-02-02T06:40:12;99330.63;;;4.80
76901;BMP280;65859;43.020;25.096;2023-02-02T06:42:39;99322.16;;;4.88
76901;BMP280;65859;43.020;25.096;2023-02-02T06:45:06;99324.91;;;5.02
76901;BMP280;65859;43.020;25.096;2023-02-02T06:47:33;99327.09;;;4.94
76901;BMP280;65859;43.020;25.096;2023-02-02T06:49:59;99325.06;;;4.86
76901;BMP280;65859;43.020;25.096;2023-02-02T06:52:28;99337.06;;;4.97
76901;BMP280;65859;43.020;25.096;2023-02-02T06:54:55;99328.03;;;5.09
76901;BMP280;65859;43.020;25.096;2023-02-02T06:57:21;99332.19;;;5.58
76901;BMP280;65859;43.020;25.096;2023-02-02T06:59:48;99327.72;;;5.58
76901;BMP280;65859;43.020;25.096;2023-02-02T07:02:15;99330.56;;;6.51
76901;BMP280;65859;43.020;25.096;2023-02-02T07:04:41;99334.97;;;7.16
76901;BMP280;65859;43.020;25.096;2023-02-02T07:07:08;99325.59;;;7.23
76901;BMP280;65859;43.020;25.096;2023-02-02T07:09:35;99320.56;;;7.49
76901;BMP280;65859;43.020;25.096;2023-02-02T07:12:01;99309.47;;;7.97
76901;BMP280;65859;43.020;25.096;2023-02-02T07:14:27;99306.19;;;7.69
76901;BMP280;65859;43.020;25.096;2023-02-02T07:16:54;99322.31;;;7.90
76901;BMP280;65859;43.020;25.096;2023-02-02T07:19:20;99317.94;;;7.36
76901;BMP280;65859;43.020;25.096;2023-02-02T07:21:46;99314.75;;;7.61
76901;BMP280;65859;43.020;25.096;2023-02-02T07:24:14;99315.47;;;7.67
76901;BMP280;65859;43.020;25.096;2023-02-02T07:26:40;99317.91;;;7.63
76901;BMP280;65859;43.020;25.096;2023-02-02T07:29:08;99319.34;;;7.19
76901;BMP280;65859;43.020;25.096;2023-02-02T07:31:37;99334.31;;;7.10
76901;BMP280;65859;43.020;25.096;2023-02-02T07:34:03;99327.16;;;6.97
76901;BMP280;65859;43.020;25.096;2023-02-02T07:36:30;99323.84;;;7.69
76901;BMP280;65859;43.020;25.096;2023-02-02T07:38:57;99328.56;;;8.70
76901;BMP280;65859;43.020;25.096;2023-02-02T07:41:23;99324.78;;;7.87
76901;BMP280;65859;43.020;25.096;2023-02-02T07:43:50;99321.34;;;8.31
76901;BMP280;65859;43.020;25.096;2023-02-02T07:46:18;99317.38;;;8.42
76901;BMP280;65859;43.020;25.096;2023-02-02T07:48:44;99316.53;;;8.24
76901;BMP280;65859;43.020;25.096;2023-02-02T07:51:16;99316.34;;;7.62
76901;BMP280;65859;43.020;25.096;2023-02-02T07:53:48;99324.94;;;8.57
76901;BMP280;65859;43.020;25.096;2023-02-02T07:56:26;99326.63;;;9.93
76901;BMP280;65859;43.020;25.096;2023-02-02T07:58:54;99330.53;;;9.61
76901;BMP280;65859;43.020;25.096;2023-02-02T08:01:22;99316.53;;;10.42
76901;BMP280;65859;43.020;25.096;2023-02-02T08:03:49;99321.56;;;11.03
76901;BMP280;65859;43.020;25.096;2023-02-02T08:08:45;99334.34;;;11.30
76901;BMP280;65859;43.020;25.096;2023-02-02T08:11:14;99329.09;;;11.84
76901;BMP280;65859;43.020;25.096;2023-02-02T08:13:41;99327.75;;;11.90
76901;BMP280;65859;43.020;25.096;2023-02-02T08:16:09;99325.78;;;12.69
76901;BMP280;65859;43.020;25.096;2023-02-02T08:18:36;99329.44;;;11.62
76901;BMP280;65859;43.020;25.096;2023-02-02T08:21:05;99327.63;;;12.20
76901;BMP280;65859;43.020;25.096;2023-02-02T08:23:34;99316.03;;;10.87
76901;BMP280;65859;43.020;25.096;2023-02-02T08:28:33;99324.50;;;11.10
76901;BMP280;65859;43.020;25.096;2023-02-02T08:31:06;99318.03;;;11.95
76901;BMP280;65859;43.020;25.096;2023-02-02T08:33:33;99310.06;;;12.52
76901;BMP280;65859;43.020;25.096;2023-02-02T08:36:00;99305.38;;;13.66
76901;BMP280;65859;43.020;25.096;2023-02-02T08:38:26;99304.66;;;13.69
76901;BMP280;65859;43.020;25.096;2023-02-02T08:40:52;99293.69;;;13.86
76901;BMP280;65859;43.020;25.096;2023-02-02T08:43:19;99291.53;;;13.48
76901;BMP280;65859;43.020;25.096;2023-02-02T08:45:46;99294.13;;;14.04
76901;BMP280;65859;43.020;25.096;2023-02-02T08:48:13;99284.91;;;14.17
76901;BMP280;65859;43.020;25.096;2023-02-02T08:50:42;99289.84;;;14.66
76901;BMP280;65859;43.020;25.096;2023-02-02T08:53:08;99279.06;;;14.79
76901;BMP280;65859;43.020;25.096;2023-02-02T08:55:34;99279.06;;;14.12
76901;BMP280;65859;43.020;25.096;2023-02-02T08:58:01;99286.97;;;13.49
76901;BMP280;65859;43.020;25.096;2023-02-02T09:00:28;99279.69;;;14.91
76901;BMP280;65859;43.020;25.096;2023-02-02T09:02:55;99274.03;;;15.35
76901;BMP280;65859;43.020;25.096;2023-02-02T09:05:21;99275.19;;;15.57
76901;BMP280;65859;43.020;25.096;2023-02-02T09:07:48;99273.84;;;15.24
76901;BMP280;65859;43.020;25.096;2023-02-02T09:10:14;99272.97;;;15.59
76901;BMP280;65859;43.020;25.096;2023-02-02T09:12:41;99273.28;;;16.00
76901;BMP280;65859;43.020;25.096;2023-02-02T09:15:07;99274.66;;;15.67
76901;BMP280;65859;43.020;25.096;2023-02-02T09:17:34;99282.28;;;16.14
76901;BMP280;65859;43.020;25.096;2023-02-02T09:20:01;99273.16;;;15.08
76901;BMP280;65859;43.020;25.096;2023-02-02T09:22:28;99265.56;;;15.29
76901;BMP280;65859;43.020;25.096;2023-02-02T09:24:54;99255.16;;;14.15
76901;BMP280;65859;43.020;25.096;2023-02-02T09:27:21;99254.09;;;13.73
76901;BMP280;65859;43.020;25.096;2023-02-02T09:29:47;99276.41;;;14.98
76901;BMP280;65859;43.020;25.096;2023-02-02T09:35:45;99252.31;;;13.33
76901;BMP280;65859;43.020;25.096;2023-02-02T09:38:12;99251.25;;;12.57
76901;BMP280;65859;43.020;25.096;2023-02-02T09:40:40;99249.13;;;14.03
76901;BMP280;65859;43.020;25.096;2023-02-02T09:45:59;99232.78;;;16.91
76901;BMP280;65859;43.020;25.096;2023-02-02T09:48:54;99236.69;;;17.34
76901;BMP280;65859;43.020;25.096;2023-02-02T09:51:27;99231.91;;;16.24
76901;BMP280;65859;43.020;25.096;2023-02-02T09:53:59;99229.00;;;16.32
76901;BMP280;65859;43.020;25.096;2023-02-02T09:56:48;99211.03;;;16.66
76901;BMP280;65859;43.020;25.096;2023-02-02T09:59:25;99213.06;;;16.73
76901;BMP280;65859;43.020;25.096;2023-02-02T10:02:02;99198.91;;;17.57
76901;BMP280;65859;43.020;25.096;2023-02-02T10:04:35;99195.72;;;15.35
76901;BMP280;65859;43.020;25.096;2023-02-02T10:07:15;99193.28;;;16.21
76901;BMP280;65859;43.020;25.096;2023-02-02T10:09:59;99183.16;;;16.37
76901;BMP280;65859;43.020;25.096;2023-02-02T10:22:47;99174.25;;;13.80
76901;BMP280;65859;43.020;25.096;2023-02-02T10:25:16;99169.69;;;13.49
76901;BMP280;65859;43.020;25.096;2023-02-02T10:30:44;99159.97;;;12.97
76901;BMP280;65859;43.020;25.096;2023-02-02T10:33:37;99169.53;;;16.83
76901;BMP280;65859;43.020;25.096;2023-02-02T10:36:16;99166.50;;;18.71
76901;BMP280;65859;43.020;25.096;2023-02-02T10:38:51;99167.34;;;16.29
76901;BMP280;65859;43.020;25.096;2023-02-02T10:46:57;99148.25;;;14.08
76901;BMP280;65859;43.020;25.096;2023-02-02T10:49:34;99147.19;;;15.32
76901;BMP280;65859;43.020;25.096;2023-02-02T11:02:55;99150.03;;;16.90
76901;BMP280;65859;43.020;25.096;2023-02-02T11:05:27;99133.00;;;14.63
76901;BMP280;65859;43.020;25.096;2023-02-02T11:11:33;99115.69;;;17.50
76901;BMP280;65859;43.020;25.096;2023-02-02T11:14:15;99122.53;;;15.43
76901;BMP280;65859;43.020;25.096;2023-02-02T11:16:43;99118.31;;;16.21
76901;BMP280;65859;43.020;25.096;2023-02-02T11:22:02;99132.97;;;22.63
76901;BMP280;65859;43.020;25.096;2023-02-02T11:24:45;99109.91;;;23.81
76901;BMP280;65859;43.020;25.096;2023-02-02T11:27:25;99091.44;;;16.88
76901;BMP280;65859;43.020;25.096;2023-02-02T11:29:57;99085.69;;;14.25
76901;BMP280;65859;43.020;25.096;2023-02-02T11:32:32;99112.78;;;23.14
76901;BMP280;65859;43.020;25.096;2023-02-02T11:35:21;99101.69;;;28.54
76901;BMP280;65859;43.020;25.096;2023-02-02T11:42:51;99088.41;;;16.53
76901;BMP280;65859;43.020;25.096;2023-02-02T11:45:24;99065.22;;;16.67
76901;BMP280;65859;43.020;25.096;2023-02-02T11:48:09;99048.63;;;17.54
76901;BMP280;65859;43.020;25.096;2023-02-02T11:50:43;99028.72;;;16.15
76901;BMP280;65859;43.020;25.096;2023-02-02T11:53:22;99037.72;;;13.90
76901;BMP280;65859;43.020;25.096;2023-02-02T11:55:49;99025.47;;;13.54
76901;BMP280;65859;43.020;25.096;2023-02-02T11:58:21;99031.59;;;13.23
76901;BMP280;65859;43.020;25.096;2023-02-02T12:01:02;99020.75;;;13.47
76901;BMP280;65859;43.020;25.096;2023-02-02T12:03:36;99011.31;;;12.71
76901;BMP280;65859;43.020;25.096;2023-02-02T12:06:33;99015.88;;;12.14
76901;BMP280;65859;43.020;25.096;2023-02-02T12:09:11;99017.41;;;12.15
76901;BMP280;65859;43.020;25.096;2023-02-02T12:14:27;99036.22;;;11.58
76901;BMP280;65859;43.020;25.096;2023-02-02T12:17:35;99039.81;;;11.04
76901;BMP280;65859;43.020;25.096;2023-02-02T12:33:42;99201.34;;;6.97
76901;BMP280;65859;43.020;25.096;2023-02-02T12:46:56;99184.19;;;7.45
76901;BMP280;65859;43.020;25.096;2023-02-02T12:55:23;99183.03;;;8.35
76901;BMP280;65859;43.020;25.096;2023-02-02T12:58:31;99177.38;;;8.85
76901;BMP280;65859;43.020;25.096;2023-02-02T13:12:07;99192.75;;;8.75
76901;BMP280;65859;43.020;25.096;2023-02-02T13:14:44;99201.72;;;7.85
76901;BMP280;65859;43.020;25.096;2023-02-02T13:19:50;99208.03;;;7.98
76901;BMP280;65859;43.020;25.096;2023-02-02T13:22:36;99222.06;;;7.63
76901;BMP280;65859;43.020;25.096;2023-02-02T13:25:08;99228.56;;;7.79
76901;BMP280;65859;43.020;25.096;2023-02-02T13:27:39;99228.53;;;7.34
76901;BMP280;65859;43.020;25.096;2023-02-02T13:30:15;99249.38;;;7.08
76901;BMP280;65859;43.020;25.096;2023-02-02T13:32:45;99251.09;;;7.13
76901;BMP280;65859;43.020;25.096;2023-02-02T13:35:41;99261.31;;;6.78
76901;BMP280;65859;43.020;25.096;2023-02-02T13:38:26;99255.44;;;6.67
76901;BMP280;65859;43.020;25.096;2023-02-02T13:40:55;99246.69;;;6.39
76901;BMP280;65859;43.020;25.096;2023-02-02T13:43:54;99268.13;;;6.51
76901;BMP280;65859;43.020;25.096;2023-02-02T13:49:30;99263.47;;;5.97
76901;BMP280;65859;43.020;25.096;2023-02-02T13:57:51;99291.44;;;6.44
76901;BMP280;65859;43.020;25.096;2023-02-02T14:00:37;99287.00;;;6.26
76901;BMP280;65859;43.020;25.096;2023-02-02T14:04:02;99292.75;;;6.09
76901;BMP280;65859;43.020;25.096;2023-02-02T14:06:15;99289.59;;;5.56
76901;BMP280;65859;43.020;25.096;2023-02-02T14:09:03;99295.63;;;5.56
76901;BMP280;65859;43.020;25.096;2023-02-02T14:11:33;99300.06;;;5.61
76901;BMP280;65859;43.020;25.096;2023-02-02T14:16:52;99312.72;;;5.11
76901;BMP280;65859;43.020;25.096;2023-02-02T14:27:00;99327.94;;;4.90
76901;BMP280;65859;43.020;25.096;2023-02-02T14:34:46;99331.47;;;5.04
76901;BMP280;65859;43.020;25.096;2023-02-02T14:37:34;99334.25;;;5.13
76901;BMP280;65859;43.020;25.096;2023-02-02T14:45:41;99286.81;;;4.41
76901;BMP280;65859;43.020;25.096;2023-02-02T14:48:19;99297.13;;;4.66
76901;BMP280;65859;43.020;25.096;2023-02-02T14:50:55;99307.72;;;4.56
76901;BMP280;65859;43.020;25.096;2023-02-02T14:53:28;99301.69;;;4.85
76901;BMP280;65859;43.020;25.096;2023-02-02T14:56:13;99296.81;;;4.73
76901;BMP280;65859;43.020;25.096;2023-02-02T15:03:49;99298.69;;;4.38
76901;BMP280;65859;43.020;25.096;2023-02-02T15:06:37;99291.41;;;4.25
76901;BMP280;65859;43.020;25.096;2023-02-02T15:17:06;99299.44;;;4.00
76901;BMP280;65859;43.020;25.096;2023-02-02T15:19:38;99292.34;;;4.00
76901;BMP280;65859;43.020;25.096;2023-02-02T15:25:05;99309.50;;;3.82
76901;BMP280;65859;43.020;25.096;2023-02-02T15:27:38;99322.63;;;3.87
76901;BMP280;65859;43.020;25.096;2023-02-02T15:30:09;99325.75;;;3.94
76901;BMP280;65859;43.020;25.096;2023-02-02T15:32:37;99327.75;;;4.08
76901;BMP280;65859;43.020;25.096;2023-02-02T15:35:10;99331.25;;;3.93
76901;BMP280;65859;43.020;25.096;2023-02-02T15:37:52;99322.78;;;4.01
76901;BMP280;65859;43.020;25.096;2023-02-02T15:40:23;99317.09;;;4.33
76901;BMP280;65859;43.020;25.096;2023-02-02T15:43:03;99310.09;;;4.24
76901;BMP280;65859;43.020;25.096;2023-02-02T15:45:46;99320.50;;;3.94
76901;BMP280;65859;43.020;25.096;2023-02-02T15:48:18;99325.25;;;3.82
76901;BMP280;65859;43.020;25.096;2023-02-02T15:50:48;99324.28;;;3.68
76901;BMP280;65859;43.020;25.096;2023-02-02T15:53:31;99329.31;;;3.59
76901;BMP280;65859;43.020;25.096;2023-02-02T15:55:58;99335.31;;;3.70
76901;BMP280;65859;43.020;25.096;2023-02-02T15:58:32;99332.97;;;4.18
76901;BMP280;65859;43.020;25.096;2023-02-02T16:01:19;99342.28;;;3.90
76901;BMP280;65859;43.020;25.096;2023-02-02T16:06:17;99342.03;;;4.36
76901;BMP280;65859;43.020;25.096;2023-02-02T16:08:44;99341.25;;;4.30
76901;BMP280;65859;43.020;25.096;2023-02-02T16:13:40;99339.22;;;4.22
76901;BMP280;65859;43.020;25.096;2023-02-02T16:21:29;99365.03;;;4.05
76901;BMP280;65859;43.020;25.096;2023-02-02T16:23:56;99378.78;;;3.86
76901;BMP280;65859;43.020;25.096;2023-02-02T16:26:27;99376.13;;;3.96
76901;BMP280;65859;43.020;25.096;2023-02-02T16:28:54;99385.56;;;3.97
76901;BMP280;65859;43.020;25.096;2023-02-02T16:31:21;99388.38;;;4.16
76901;BMP280;65859;43.020;25.096;2023-02-02T16:33:48;99400.38;;;4.22
76901;BMP280;65859;43.020;25.096;2023-02-02T16:36:21;99392.31;;;4.14
76901;BMP280;65859;43.020;25.096;2023-02-02T16:38:48;99390.16;;;4.21
76901;BMP280;65859;43.020;25.096;2023-02-02T16:44:38;99402.53;;;4.60
76901;BMP280;65859;43.020;25.096;2023-02-02T16:47:09;99404.19;;;4.51
76901;BMP280;65859;43.020;25.096;2023-02-02T16:52:33;99407.16;;;4.34
76901;BMP280;65859;43.020;25.096;2023-02-02T16:55:00;99409.47;;;4.40
76901;BMP280;65859;43.020;25.096;2023-02-02T16:57:29;99410.66;;;4.24
76901;BMP280;65859;43.020;25.096;2023-02-02T16:59:59;99397.44;;;4.39
76901;BMP280;65859;43.020;25.096;2023-02-02T17:02:33;99399.34;;;4.63
76901;BMP280;65859;43.020;25.096;2023-02-02T17:07:36;99415.75;;;4.50
76901;BMP280;65859;43.020;25.096;2023-02-02T17:12:42;99428.38;;;4.47
76901;BMP280;65859;43.020;25.096;2023-02-02T17:17:45;99421.84;;;4.40
76901;BMP280;65859;43.020;25.096;2023-02-02T17:20:15;99414.31;;;4.28
76901;BMP280;65859;43.020;25.096;2023-02-02T17:22:46;99403.16;;;4.46
76901;BMP280;65859;43.020;25.096;2023-02-02T17:25:39;99410.00;;;4.42
76901;BMP280;65859;43.020;25.096;2023-02-02T17:28:11;99409.16;;;4.52
76901;BMP280;65859;43.020;25.096;2023-02-02T17:30:43;99419.81;;;4.32
76901;BMP280;65859;43.020;25.096;2023-02-02T17:33:12;99407.88;;;4.50
76901;BMP280;65859;43.020;25.096;2023-02-02T17:35:40;99405.00;;;4.46
76901;BMP280;65859;43.020;25.096;2023-02-02T17:38:07;99393.28;;;4.28
76901;BMP280;65859;43.020;25.096;2023-02-02T17:40:33;99404.13;;;4.16
76901;BMP280;65859;43.020;25.096;2023-02-02T17:43:00;99396.16;;;4.32